createdAt,value
2022-09-24T00:02:05.326Z,4.05
2022-09-24T00:04:37.361Z,4.97
2022-09-24T00:07:09.419Z,4.33
2022-09-24T00:09:41.545Z,4.35
2022-09-24T00:12:13.691Z,3.58
2022-09-24T00:14:45.720Z,3.72
2022-09-24T00:17:20.360Z,3.62
2022-09-24T00:19:52.282Z,3.20
2022-09-24T00:22:24.246Z,3.65
2022-09-24T00:25:13.998Z,3.77
2022-09-24T00:27:46.092Z,3.50
2022-09-24T00:30:18.206Z,3.37
2022-09-24T00:32:50.615Z,3.10
2022-09-24T00:35:23.853Z,3.20
2022-09-24T00:37:56.440Z,3.52
2022-09-24T00:40:34.028Z,3.17
2022-09-24T00:43:28.715Z,3.37
2022-09-24T00:46:21.866Z,3.20
2022-09-24T00:48:57.580Z,4.67
2022-09-24T00:51:32.297Z,3.80
2022-09-24T00:56:39.820Z,3.65
2022-09-24T00:59:16.652Z,3.72
2022-09-24T01:01:49.849Z,4.05
2022-09-24T01:04:22.549Z,4.25
2022-09-24T01:06:55.419Z,3.80
2022-09-24T01:09:28.807Z,3.42
2022-09-24T01:12:23.270Z,3.67
2022-09-24T01:15:07.274Z,3.50
2022-09-24T01:17:54.376Z,3.77
2022-09-24T01:20:45.016Z,3.77
2022-09-24T01:23:26.029Z,3.22
2022-09-24T01:26:14.121Z,2.30
2022-09-24T01:29:02.838Z,2.52
2022-09-24T01:31:38.041Z,2.47
2022-09-24T01:34:12.505Z,2.10
2022-09-24T01:39:19.748Z,1.75
2022-09-24T01:41:52.725Z,1.95
2022-09-24T01:44:25.414Z,2.00
2022-09-24T01:46:57.651Z,1.52
2022-09-24T01:49:30.576Z,1.22
2022-09-24T01:52:05.694Z,1.50
2022-09-24T01:54:40.338Z,1.27
2022-09-24T01:57:18.229Z,1.17
2022-09-24T01:59:59.995Z,1.27
2022-09-24T02:02:48.032Z,0.98
2022-09-24T02:05:37.533Z,0.98
2022-09-24T02:08:27.702Z,0.60
2022-09-24T02:11:04.411Z,1.00
2022-09-24T02:13:39.811Z,1.25
2022-09-24T02:16:16.577Z,1.50
2022-09-24T02:18:51.370Z,1.40
2022-09-24T02:21:25.121Z,1.52
2022-09-24T02:24:01.132Z,1.57
2022-09-24T02:26:33.477Z,1.65
2022-09-24T02:29:06.537Z,2.10
2022-09-24T02:31:41.714Z,2.17
2022-09-24T02:34:22.608Z,1.80
2022-09-24T02:37:00.167Z,1.40
2022-09-24T02:39:32.491Z,1.02
2022-09-24T02:42:06.670Z,0.88
2022-09-24T02:44:39.078Z,0.82
2022-09-24T02:47:12.003Z,1.07
2022-09-24T02:49:43.978Z,0.90
2022-09-24T02:52:15.944Z,1.30
2022-09-24T02:54:47.974Z,0.80
2022-09-24T02:57:20.806Z,0.70
2022-09-24T02:59:52.996Z,0.50
2022-09-24T03:02:25.428Z,0.50
2022-09-24T03:04:57.649Z,0.72
2022-09-24T03:07:30.168Z,0.40
2022-09-24T03:10:02.203Z,0.70
2022-09-24T03:12:34.556Z,0.80
2022-09-24T03:15:07.060Z,0.57
2022-09-24T03:17:39.582Z,0.50
2022-09-24T03:20:11.691Z,0.65
2022-09-24T03:22:44.130Z,0.70
2022-09-24T03:25:16.130Z,0.30
2022-09-24T03:27:48.607Z,1.30
2022-09-24T03:30:38.511Z,0.70
2022-09-24T03:33:10.595Z,0.90
2022-09-24T03:35:42.643Z,0.50
2022-09-24T03:38:14.718Z,1.15
2022-09-24T03:40:46.827Z,0.90
2022-09-24T03:43:18.864Z,0.57
2022-09-24T03:45:51.928Z,1.00
2022-09-24T03:48:25.817Z,1.12
2022-09-24T03:50:57.855Z,0.68
2022-09-24T03:53:30.330Z,0.47
2022-09-24T03:56:04.079Z,0.40
2022-09-24T03:58:39.212Z,1.65
2022-09-24T04:01:13.166Z,0.90
2022-09-24T04:03:45.459Z,1.13
2022-09-24T04:06:23.427Z,0.70
2022-09-24T04:08:51.904Z,0.47
2022-09-24T04:11:24.961Z,0.50
2022-09-24T04:13:58.471Z,0.70
2022-09-24T04:16:30.485Z,0.78
2022-09-24T04:19:02.773Z,0.68
2022-09-24T04:21:35.060Z,0.70
2022-09-24T04:24:07.436Z,0.50
2022-09-24T04:26:39.953Z,0.57
2022-09-24T04:29:13.602Z,0.70
2022-09-24T04:31:46.338Z,0.78
2022-09-24T04:34:18.420Z,0.75
2022-09-24T04:36:50.378Z,0.30
2022-09-24T04:39:23.817Z,0.57
2022-09-24T04:41:56.116Z,1.20
2022-09-24T04:44:29.259Z,0.42
2022-09-24T04:47:02.187Z,1.10
2022-09-24T04:49:34.273Z,0.40
2022-09-24T04:52:06.871Z,1.07
2022-09-24T04:54:39.135Z,0.50
2022-09-24T04:57:11.207Z,0.53
2022-09-24T04:59:44.663Z,0.80
2022-09-24T05:02:17.025Z,0.47
2022-09-24T05:04:49.244Z,0.70
2022-09-24T05:07:21.218Z,0.65
2022-09-24T05:09:53.411Z,0.40
2022-09-24T05:12:25.512Z,0.70
2022-09-24T05:14:57.719Z,1.20
2022-09-24T05:17:30.351Z,0.90
2022-09-24T05:20:02.718Z,0.60
2022-09-24T05:22:36.331Z,1.10
2022-09-24T05:25:08.687Z,0.30
2022-09-24T05:27:46.347Z,0.50
2022-09-24T05:30:19.686Z,0.57
2022-09-24T05:32:54.552Z,0.85
2022-09-24T05:35:26.654Z,0.30
2022-09-24T05:37:58.595Z,0.62
2022-09-24T05:40:35.410Z,0.40
2022-09-24T05:43:07.439Z,0.50
2022-09-24T05:45:39.816Z,0.53
2022-09-24T05:48:12.062Z,0.20
2022-09-24T05:50:44.452Z,0.78
2022-09-24T05:53:17.132Z,0.70
2022-09-24T05:55:49.183Z,0.50
2022-09-24T05:58:21.559Z,0.50
2022-09-24T06:00:53.810Z,0.40
2022-09-24T06:03:26.139Z,0.70
2022-09-24T06:05:59.760Z,0.30
2022-09-24T06:08:35.943Z,1.42
2022-09-24T06:11:08.985Z,0.40
2022-09-24T06:13:41.084Z,1.02
2022-09-24T06:16:13.668Z,0.40
2022-09-24T06:18:46.250Z,0.50
2022-09-24T06:21:18.637Z,1.30
2022-09-24T06:23:51.268Z,0.70
2022-09-24T06:26:23.435Z,0.80
2022-09-24T06:28:55.309Z,1.35
2022-09-24T06:31:27.702Z,0.72
2022-09-24T06:34:00.510Z,0.80
2022-09-24T06:36:32.505Z,1.30
2022-09-24T06:39:04.664Z,0.98
2022-09-24T06:41:36.680Z,1.57
2022-09-24T06:44:08.800Z,1.70
2022-09-24T06:46:40.906Z,1.22
2022-09-24T06:49:13.237Z,0.95
2022-09-24T06:51:46.091Z,2.80
2022-09-24T06:54:18.356Z,0.60
2022-09-24T06:56:52.708Z,0.40
2022-09-24T06:59:24.786Z,1.05
2022-09-24T07:01:57.264Z,1.40
2022-09-24T07:04:29.672Z,0.57
2022-09-24T07:07:19.477Z,0.80
2022-09-24T07:09:51.676Z,0.80
2022-09-24T07:12:24.181Z,0.78
2022-09-24T07:14:56.950Z,1.70
2022-09-24T07:17:33.911Z,0.85
2022-09-24T07:20:06.177Z,0.95
2022-09-24T07:22:43.450Z,1.00
2022-09-24T07:25:15.902Z,1.32
2022-09-24T07:27:47.935Z,0.90
2022-09-24T07:30:20.239Z,1.05
2022-09-24T07:32:56.982Z,0.62
2022-09-24T07:35:29.816Z,0.80
2022-09-24T07:38:03.649Z,0.80
2022-09-24T07:40:36.393Z,0.62
2022-09-24T07:43:10.533Z,1.45
2022-09-24T07:45:43.475Z,0.70
2022-09-24T07:48:16.070Z,0.90
2022-09-24T07:50:48.516Z,0.70
2022-09-24T07:53:21.976Z,1.05
2022-09-24T07:55:53.997Z,0.90
2022-09-24T07:58:25.995Z,1.50
2022-09-24T08:01:04.428Z,0.95
2022-09-24T08:03:36.847Z,0.88
2022-09-24T08:06:09.351Z,0.53
2022-09-24T08:08:41.871Z,0.72
2022-09-24T08:11:14.676Z,0.70
2022-09-24T08:13:47.170Z,0.78
2022-09-24T08:16:21.597Z,0.68
2022-09-24T08:18:54.261Z,1.12
2022-09-24T08:21:26.954Z,0.93
2022-09-24T08:23:58.885Z,0.90
2022-09-24T08:26:31.208Z,0.95
2022-09-24T08:29:03.335Z,0.60
2022-09-24T08:31:35.452Z,0.90
2022-09-24T08:34:07.875Z,1.05
2022-09-24T08:36:42.959Z,0.75
2022-09-24T08:39:15.387Z,0.60
2022-09-24T08:41:59.972Z,1.17
2022-09-24T08:44:58.449Z,0.60
2022-09-24T08:47:52.820Z,0.90
2022-09-24T08:50:27.743Z,0.72
2022-09-24T08:53:24.606Z,0.00
2022-09-24T08:56:00.844Z,0.00
2022-09-24T08:58:44.554Z,0.20
2022-09-24T09:01:18.534Z,0.00
2022-09-24T09:04:05.395Z,0.00
2022-09-24T09:07:14.719Z,0.00
2022-09-24T09:09:52.735Z,0.00
2022-09-24T09:12:30.788Z,0.00
2022-09-24T09:15:05.735Z,0.55
2022-09-24T09:17:42.465Z,0.00
2022-09-24T09:20:41.501Z,0.00
2022-09-24T09:23:21.758Z,0.00
2022-09-24T09:25:56.547Z,0.00
2022-09-24T09:28:30.058Z,0.00
2022-09-24T09:31:14.223Z,0.00
2022-09-24T09:34:07.510Z,0.00
2022-09-24T09:37:15.565Z,0.00
2022-09-24T09:39:59.373Z,0.00
2022-09-24T09:42:36.680Z,0.00
2022-09-24T09:45:29.825Z,0.55
2022-09-24T09:48:05.081Z,0.00
2022-09-24T09:50:52.512Z,0.03
2022-09-24T09:53:31.589Z,0.00
2022-09-24T09:56:06.612Z,0.00
2022-09-24T09:58:41.535Z,0.00
2022-09-24T10:01:15.941Z,0.00
2022-09-24T10:06:32.076Z,1.05
2022-09-24T10:09:16.011Z,1.85
2022-09-24T10:11:48.977Z,1.12
2022-09-24T10:14:21.929Z,1.10
2022-09-24T10:16:56.103Z,1.85
2022-09-24T10:19:29.966Z,1.00
2022-09-24T10:22:16.794Z,1.17
2022-09-24T10:24:50.093Z,1.27
2022-09-24T10:27:38.762Z,1.07
2022-09-24T10:30:34.856Z,0.80
2022-09-24T10:33:08.900Z,1.30
2022-09-24T10:35:40.900Z,2.22
2022-09-24T10:38:19.863Z,1.40
2022-09-24T10:40:51.983Z,4.60
2022-09-24T10:43:24.569Z,0.90
2022-09-24T10:46:05.475Z,1.50
2022-09-24T10:48:46.443Z,0.80
2022-09-24T10:51:34.348Z,2.47
2022-09-24T10:54:12.616Z,1.95
2022-09-24T10:56:55.046Z,1.20
2022-09-24T10:59:42.629Z,1.60
2022-09-24T11:02:36.782Z,1.82
2022-09-24T11:05:13.603Z,2.35
2022-09-24T11:08:09.910Z,1.92
2022-09-24T11:11:03.125Z,2.20
2022-09-24T11:14:05.279Z,1.57
2022-09-24T11:16:59.792Z,1.52
2022-09-24T11:20:09.931Z,2.30
2022-09-24T11:23:04.475Z,2.15
2022-09-24T11:25:39.999Z,2.22
2022-09-24T11:28:24.313Z,1.60
2022-09-24T11:31:05.196Z,2.10
2022-09-24T11:34:01.718Z,3.05
2022-09-24T11:36:53.016Z,1.50
2022-09-24T11:39:36.839Z,1.98
2022-09-24T11:42:32.692Z,2.20
2022-09-24T11:45:16.821Z,3.02
2022-09-24T11:47:51.982Z,2.13
2022-09-24T11:50:35.951Z,2.42
2022-09-24T11:53:27.517Z,2.65
2022-09-24T11:56:09.471Z,2.80
2022-09-24T11:58:45.119Z,2.95
2022-09-24T12:01:23.320Z,2.30
2022-09-24T12:04:07.123Z,2.62
2022-09-24T12:06:52.659Z,2.35
2022-09-24T12:09:42.390Z,2.10
2022-09-24T12:12:17.439Z,3.15
2022-09-24T12:15:09.423Z,3.52
2022-09-24T12:17:47.837Z,2.70
2022-09-24T12:20:23.211Z,2.02
2022-09-24T12:23:00.327Z,1.90
2022-09-24T12:25:35.239Z,2.25
2022-09-24T12:28:09.463Z,3.12
2022-09-24T12:31:12.094Z,2.42
2022-09-24T12:33:53.816Z,3.00
2022-09-24T12:36:28.894Z,3.27
2022-09-24T12:39:06.900Z,3.20
2022-09-24T12:41:48.068Z,2.67
2022-09-24T12:44:26.022Z,2.27
2022-09-24T12:47:00.605Z,2.30
2022-09-24T12:49:38.075Z,4.40
2022-09-24T12:52:22.371Z,3.67
2022-09-24T12:55:01.016Z,3.60
2022-09-24T12:57:45.723Z,3.70
2022-09-24T13:00:39.465Z,1.75
2022-09-24T13:03:34.184Z,3.12
2022-09-24T13:06:24.244Z,1.60
2022-09-24T13:08:56.543Z,2.62
2022-09-24T13:11:31.520Z,2.42
2022-09-24T13:14:06.339Z,2.70
2022-09-24T13:16:44.060Z,2.20
2022-09-24T13:19:38.480Z,1.25
2022-09-24T13:22:29.685Z,1.62
2022-09-24T13:25:14.364Z,1.42
2022-09-24T13:27:49.428Z,1.50
2022-09-24T13:30:36.431Z,0.95
2022-09-24T13:33:14.571Z,1.70
2022-09-24T13:35:52.457Z,1.40
2022-09-24T13:38:27.672Z,2.00
2022-09-24T13:41:17.559Z,1.47
2022-09-24T13:44:04.481Z,1.50
2022-09-24T13:46:37.850Z,1.30
2022-09-24T13:49:16.497Z,1.30
2022-09-24T13:51:52.022Z,1.50
2022-09-24T13:54:39.958Z,1.57
2022-09-24T13:57:15.223Z,2.37
2022-09-24T13:59:47.474Z,2.40
2022-09-24T14:02:28.722Z,2.50
2022-09-24T14:05:02.972Z,3.12
2022-09-24T14:07:34.882Z,2.62
2022-09-24T14:10:09.726Z,2.50
2022-09-24T14:12:42.265Z,3.08
2022-09-24T14:15:18.911Z,1.87
2022-09-24T14:18:00.109Z,1.00
2022-09-24T14:20:35.234Z,1.30
2022-09-24T14:23:08.246Z,1.40
2022-09-24T14:25:40.988Z,1.65
2022-09-24T14:28:14.912Z,1.35
2022-09-24T14:30:57.537Z,2.02
2022-09-24T14:33:32.412Z,1.60
2022-09-24T14:36:05.199Z,2.37
2022-09-24T14:38:40.402Z,1.40
2022-09-24T14:41:18.811Z,1.60
2022-09-24T14:43:53.785Z,0.98
2022-09-24T14:46:41.249Z,2.15
2022-09-24T14:49:25.077Z,1.55
2022-09-24T14:52:05.787Z,1.40
2022-09-24T14:54:43.964Z,1.90
2022-09-24T14:57:21.864Z,1.50
2022-09-24T14:59:54.476Z,1.45
2022-09-24T15:02:37.900Z,1.40
2022-09-24T15:05:12.209Z,1.20
2022-09-24T15:07:45.290Z,1.67
2022-09-24T15:10:24.114Z,1.20
2022-09-24T15:12:56.746Z,0.93
2022-09-24T15:15:32.257Z,1.37
2022-09-24T15:18:06.006Z,1.00
2022-09-24T15:20:39.997Z,1.40
2022-09-24T15:23:12.162Z,1.30
2022-09-24T15:25:44.584Z,2.00
2022-09-24T15:28:17.628Z,1.65
2022-09-24T15:30:51.024Z,2.40
2022-09-24T15:33:23.919Z,1.42
2022-09-24T15:35:56.264Z,1.50
2022-09-24T15:38:28.832Z,1.27
2022-09-24T15:41:01.797Z,1.42
2022-09-24T15:43:35.231Z,2.10
2022-09-24T15:46:07.941Z,2.00
2022-09-24T15:48:40.663Z,2.02
2022-09-24T15:51:15.751Z,1.02
2022-09-24T15:53:50.675Z,1.60
2022-09-24T15:56:22.971Z,1.50
2022-09-24T15:58:56.570Z,2.20
2022-09-24T16:01:29.035Z,2.05
2022-09-24T16:04:01.408Z,2.83
2022-09-24T16:06:34.097Z,2.42
2022-09-24T16:09:06.460Z,3.05
2022-09-24T16:11:38.670Z,3.20
2022-09-24T16:14:12.204Z,2.00
2022-09-24T16:16:44.962Z,1.98
2022-09-24T16:19:18.648Z,2.02
2022-09-24T16:21:52.346Z,2.43
2022-09-24T16:24:25.485Z,2.20
2022-09-24T16:26:57.658Z,1.55
2022-09-24T16:29:31.563Z,1.90
2022-09-24T16:32:04.767Z,1.40
2022-09-24T16:34:37.203Z,1.80
2022-09-24T16:37:10.936Z,2.42
2022-09-24T16:39:43.342Z,1.87
2022-09-24T16:42:15.517Z,2.00
2022-09-24T16:44:47.814Z,1.50
2022-09-24T16:47:20.858Z,2.02
2022-09-24T16:49:53.567Z,2.37
2022-09-24T16:52:26.085Z,1.50
2022-09-24T16:54:58.991Z,1.90
2022-09-24T16:57:33.274Z,1.67
2022-09-24T17:00:09.280Z,1.80
2022-09-24T17:02:42.307Z,2.42
2022-09-24T17:05:15.039Z,1.60
2022-09-24T17:07:47.442Z,2.62
2022-09-24T17:10:21.029Z,2.92
2022-09-24T17:12:53.691Z,1.95
2022-09-24T17:15:27.368Z,1.35
2022-09-24T17:18:01.311Z,1.50
2022-09-24T17:20:33.575Z,1.35
2022-09-24T17:23:06.516Z,2.45
2022-09-24T17:25:39.119Z,1.60
2022-09-24T17:28:12.306Z,1.55
2022-09-24T17:30:46.233Z,1.47
2022-09-24T17:33:41.714Z,2.25
2022-09-24T17:35:58.284Z,1.80
2022-09-24T17:38:32.951Z,1.77
2022-09-24T17:41:08.676Z,1.60
2022-09-24T17:43:42.088Z,1.60
2022-09-24T17:46:19.609Z,3.33
2022-09-24T17:48:54.402Z,2.20
2022-09-24T17:54:00.543Z,1.65
2022-09-24T17:56:34.249Z,1.67
2022-09-24T17:59:08.631Z,2.02
2022-09-24T18:01:43.369Z,1.30
2022-09-24T18:06:49.765Z,1.95
2022-09-24T18:09:22.319Z,1.70
2022-09-24T18:11:56.294Z,2.15
2022-09-24T18:14:28.556Z,2.47
2022-09-24T18:17:01.225Z,1.82
2022-09-24T18:19:33.502Z,2.33
2022-09-24T18:22:07.312Z,2.08
2022-09-24T18:24:40.696Z,1.85
2022-09-24T18:27:14.577Z,2.08
2022-09-24T18:29:47.060Z,1.60
2022-09-24T18:32:20.299Z,1.50
2022-09-24T18:34:52.765Z,1.80
2022-09-24T18:37:25.164Z,1.40
2022-09-24T18:39:58.715Z,1.35
2022-09-24T18:42:30.937Z,2.33
2022-09-24T18:45:03.987Z,1.50
2022-09-24T18:47:41.372Z,1.70
2022-09-24T18:50:14.283Z,1.30
2022-09-24T18:52:46.711Z,1.52
2022-09-24T18:55:18.666Z,1.52
2022-09-24T18:57:51.198Z,1.50
2022-09-24T19:00:40.940Z,1.90
2022-09-24T19:03:13.450Z,1.00
2022-09-24T19:05:48.152Z,1.65
2022-09-24T19:08:21.496Z,1.00
2022-09-24T19:10:54.040Z,1.62
2022-09-24T19:13:26.994Z,2.35
2022-09-24T19:15:59.420Z,1.32
2022-09-24T19:18:31.731Z,1.20
2022-09-24T19:21:06.738Z,2.30
2022-09-24T19:23:39.864Z,1.57
2022-09-24T19:26:13.513Z,2.90
2022-09-24T19:28:46.869Z,2.13
2022-09-24T19:31:36.344Z,1.80
2022-09-24T19:34:11.696Z,3.98
2022-09-24T19:36:45.282Z,1.70
2022-09-24T19:39:18.623Z,1.37
2022-09-24T19:41:52.529Z,1.60
2022-09-24T19:44:24.527Z,1.00
2022-09-24T19:46:56.537Z,1.85
2022-09-24T19:49:28.623Z,3.80
2022-09-24T19:52:00.926Z,1.90
2022-09-24T19:54:33.189Z,2.25
2022-09-24T19:57:05.591Z,1.80
2022-09-24T19:59:37.601Z,1.50
2022-09-24T20:02:11.884Z,4.22
2022-09-24T20:04:44.077Z,2.77
2022-09-24T20:07:17.891Z,2.10
2022-09-24T20:09:50.117Z,2.08
2022-09-24T20:12:22.117Z,2.42
2022-09-24T20:14:54.175Z,2.00
2022-09-24T20:17:26.282Z,1.77
2022-09-24T20:20:00.056Z,1.52
2022-09-24T20:22:34.166Z,1.20
2022-09-24T20:25:06.690Z,1.30
2022-09-24T20:27:52.866Z,1.70
2022-09-24T20:30:25.266Z,1.30
2022-09-24T20:32:57.344Z,0.80
2022-09-24T20:35:29.811Z,1.37
2022-09-24T20:38:01.924Z,1.47
2022-09-24T20:40:36.740Z,2.98
2022-09-24T20:43:08.846Z,1.00
2022-09-24T20:45:41.487Z,2.15
2022-09-24T20:48:13.614Z,1.20
2022-09-24T20:50:48.007Z,1.40
2022-09-24T20:53:20.314Z,1.10
2022-09-24T20:55:55.769Z,1.47
2022-09-24T20:58:27.866Z,2.00
2022-09-24T21:01:00.252Z,1.27
2022-09-24T21:03:49.649Z,2.00
2022-09-24T21:06:10.698Z,1.30
2022-09-24T21:08:46.165Z,1.17
2022-09-24T21:11:21.115Z,1.20
2022-09-24T21:13:56.407Z,0.70
2022-09-24T21:16:31.319Z,0.78
2022-09-24T21:19:07.484Z,1.30
2022-09-24T21:21:40.742Z,0.80
2022-09-24T21:24:15.234Z,1.17
2022-09-24T21:26:47.735Z,1.00
2022-09-24T21:29:21.727Z,1.22
2022-09-24T21:31:53.752Z,1.30
2022-09-24T21:34:28.318Z,0.50
2022-09-24T21:37:04.054Z,1.22
2022-09-24T21:39:36.004Z,2.95
2022-09-24T21:42:08.671Z,0.95
2022-09-24T21:44:42.796Z,1.65
2022-09-24T21:47:15.012Z,1.52
2022-09-24T21:49:48.211Z,1.40
2022-09-24T21:52:20.421Z,0.68
2022-09-24T21:54:52.715Z,1.82
2022-09-24T21:57:24.799Z,0.95
2022-09-24T22:00:03.993Z,0.90
2022-09-24T22:02:37.896Z,1.30
2022-09-24T22:05:10.714Z,1.15
2022-09-24T22:07:42.948Z,1.20
2022-09-24T22:10:15.148Z,0.93
2022-09-24T22:12:47.503Z,1.40
2022-09-24T22:15:21.530Z,1.10
2022-09-24T22:17:53.653Z,1.37
2022-09-24T22:20:25.815Z,1.20
2022-09-24T22:22:57.939Z,1.00
2022-09-24T22:25:31.484Z,1.12
2022-09-24T22:28:03.932Z,1.40
2022-09-24T22:30:35.983Z,1.65
2022-09-24T22:33:07.991Z,1.57
2022-09-24T22:35:51.462Z,1.10
2022-09-24T22:38:23.872Z,1.10
2022-09-24T22:40:55.968Z,1.10
2022-09-24T22:43:29.809Z,1.10
2022-09-24T22:46:04.900Z,1.02
2022-09-24T22:48:38.174Z,0.93
2022-09-24T22:51:11.110Z,1.00
2022-09-24T22:53:43.531Z,0.80
2022-09-24T22:56:18.136Z,0.98
2022-09-24T23:01:28.675Z,0.82
2022-09-24T23:04:02.781Z,1.02
2022-09-24T23:06:35.241Z,1.10
2022-09-24T23:09:07.513Z,0.75
2022-09-24T23:11:39.523Z,1.75
2022-09-24T23:14:16.717Z,1.20
2022-09-24T23:16:49.193Z,1.05
2022-09-24T23:19:21.581Z,1.30
2022-09-24T23:21:53.624Z,1.20
2022-09-24T23:24:25.773Z,1.02
2022-09-24T23:26:58.501Z,1.12
2022-09-24T23:29:30.680Z,1.10
2022-09-24T23:32:03.136Z,1.12
2022-09-24T23:34:35.209Z,1.17
2022-09-24T23:37:07.681Z,1.17
2022-09-24T23:39:40.313Z,1.00
2022-09-24T23:42:12.457Z,1.67
2022-09-24T23:44:45.609Z,0.93
2022-09-24T23:47:18.318Z,1.10
2022-09-24T23:49:50.675Z,1.40
2022-09-24T23:52:22.687Z,0.88
2022-09-24T23:54:54.729Z,1.00
2022-09-24T23:57:27.152Z,1.17
2022-09-24T23:59:59.254Z,1.05
